Time;durP1;ratioP1;P1;durP2;ratioP2;P2;SDS_P1;SDS_P2;PMS_P1;PMS_P2;Temp;Humidity;BMP_temperature;BMP_pressure;BME280_temperature;BME280_humidity;BME280_pressure;Samples;Min_cycle;Max_cycle;Signal;HPM_P1;HPM_P2
2022/10/16 00:00:41;;;;;;;0.60;0.60;;;15.30;99.90;;;;;;5054641;28;20174;-78
2022/10/16 00:03:07;;;;;;;0.88;0.57;;;15.30;99.90;;;;;;5055130;28;20168;-84
2022/10/16 00:05:33;;;;;;;0.80;0.80;;;15.30;99.90;;;;;;5054087;28;20601;-79
2022/10/16 00:07:58;;;;;;;1.95;0.75;;;15.30;99.90;;;;;;5054459;28;20580;-78
2022/10/16 00:10:24;;;;;;;2.30;0.73;;;15.30;99.90;;;;;;5054372;28;20178;-78
2022/10/16 00:12:50;;;;;;;5.75;0.50;;;15.30;99.90;;;;;;5054596;28;20536;-78
2022/10/16 00:15:16;;;;;;;0.68;0.68;;;15.30;99.90;;;;;;5053948;28;20277;-94
2022/10/16 00:17:41;;;;;;;2.75;0.75;;;15.20;99.90;;;;;;5054237;28;20590;-78
2022/10/16 00:20:07;;;;;;;1.10;0.80;;;15.30;99.90;;;;;;5054089;28;20217;-92
2022/10/16 00:22:33;;;;;;;0.75;0.75;;;15.30;99.90;;;;;;5055193;28;20228;-77
2022/10/16 00:24:59;;;;;;;8.10;1.08;;;15.30;99.90;;;;;;5055482;28;20171;-78
2022/10/16 00:27:24;;;;;;;1.95;0.90;;;15.10;99.90;;;;;;5065526;28;20152;-78
2022/10/16 00:29:51;;;;;;;1.38;0.98;;;15.20;99.90;;;;;;5077248;28;20206;-78
2022/10/16 00:32:17;;;;;;;1.92;0.98;;;15.30;99.90;;;;;;5055978;28;20167;-78
2022/10/16 00:34:43;;;;;;;1.42;0.82;;;15.20;99.90;;;;;;5052770;28;20560;-78
2022/10/16 00:37:09;;;;;;;1.20;0.85;;;15.10;99.90;;;;;;5054642;28;20187;-77
2022/10/16 00:39:35;;;;;;;1.30;0.75;;;15.20;99.90;;;;;;5053371;28;20778;-77
2022/10/16 00:42:00;;;;;;;1.52;0.98;;;15.20;99.90;;;;;;5053816;28;20174;-89
2022/10/16 00:44:56;;;;;;;0.70;0.70;;;15.20;99.90;;;;;;5054603;28;20178;-78
2022/10/16 00:47:36;;;;;;;0.73;0.73;;;15.10;99.90;;;;;;5052628;28;20217;-78
2022/10/16 00:50:32;;;;;;;3.20;1.05;;;15.20;99.90;;;;;;5054224;28;20159;-93
2022/10/16 00:52:58;;;;;;;0.70;0.70;;;15.20;99.90;;;;;;5054522;28;20644;-84
2022/10/16 00:55:26;;;;;;;0.90;0.80;;;15.00;99.90;;;;;;5053908;28;20179;-79
2022/10/16 00:57:51;;;;;;;4.50;0.98;;;14.90;99.90;;;;;;5053762;28;20167;-78
2022/10/16 01:00:21;;;;;;;0.80;0.80;;;15.00;99.90;;;;;;5054058;28;20203;-77
2022/10/16 01:02:55;;;;;;;1.67;1.02;;;14.90;99.90;;;;;;5053748;28;20159;-93
2022/10/16 01:05:54;;;;;;;0.95;0.88;;;15.00;99.90;;;;;;5052968;28;20194;-78
2022/10/16 01:08:33;;;;;;;0.80;0.80;;;15.00;99.90;;;;;;5039818;28;20194;-77
2022/10/16 01:11:09;;;;;;;2.25;1.00;;;15.00;99.90;;;;;;5053012;28;20246;-78
2022/10/16 01:13:45;;;;;;;1.02;0.90;;;14.90;99.90;;;;;;5053134;28;20178;-80
2022/10/16 01:16:48;;;;;;;0.80;0.80;;;14.70;99.90;;;;;;5053267;28;20273;-77
2022/10/16 01:19:31;;;;;;;0.98;0.90;;;14.60;99.90;;;;;;5045446;28;20317;-78
2022/10/16 01:21:59;;;;;;;2.47;0.90;;;14.80;99.90;;;;;;5054773;28;20171;-78
2022/10/16 01:24:45;;;;;;;1.02;0.98;;;14.80;99.90;;;;;;5051680;28;20174;-77
2022/10/16 01:27:16;;;;;;;5.22;1.00;;;14.70;99.90;;;;;;5052467;28;20191;-78
2022/10/16 01:29:50;;;;;;;1.00;0.98;;;14.60;99.90;;;;;;5053347;28;20166;-77
2022/10/16 01:32:33;;;;;;;7.30;1.33;;;14.70;99.90;;;;;;5052944;28;20163;-78
2022/10/16 01:35:21;;;;;;;1.65;0.93;;;14.80;99.90;;;;;;5053175;28;20163;-78
2022/10/16 01:37:55;;;;;;;1.73;1.13;;;14.80;99.90;;;;;;5056996;28;20167;-78
2022/10/16 01:40:25;;;;;;;1.13;0.63;;;14.80;99.90;;;;;;5056869;28;20186;-78
2022/10/16 01:43:02;;;;;;;1.02;0.95;;;14.80;99.90;;;;;;5056850;28;20202;-78
2022/10/16 01:45:31;;;;;;;5.70;1.00;;;14.70;99.90;;;;;;5057334;28;20187;-78
2022/10/16 01:47:58;;;;;;;1.17;0.90;;;14.60;99.90;;;;;;5057756;28;20171;-78
2022/10/16 01:50:25;;;;;;;1.33;1.20;;;14.60;99.90;;;;;;5057145;28;20185;-78
2022/10/16 01:52:53;;;;;;;2.60;0.95;;;14.70;99.90;;;;;;5056108;28;20213;-78
2022/10/16 01:55:24;;;;;;;4.20;1.02;;;14.80;99.90;;;;;;5057453;28;20254;-80
2022/10/16 01:57:51;;;;;;;1.45;1.00;;;14.90;99.90;;;;;;5056884;28;20171;-78
2022/10/16 02:00:19;;;;;;;1.10;0.93;;;14.90;99.90;;;;;;5056169;28;20237;-78
2022/10/16 02:02:49;;;;;;;1.30;1.20;;;14.80;99.90;;;;;;5057682;28;20163;-78
2022/10/16 02:05:30;;;;;;;0.85;0.85;;;14.80;99.90;;;;;;5055404;28;20264;-82
2022/10/16 02:07:56;;;;;;;3.97;1.00;;;14.60;99.90;;;;;;5056848;28;20709;-79
2022/10/16 02:10:23;;;;;;;3.08;0.93;;;14.40;99.90;;;;;;5057394;28;20186;-77
2022/10/16 02:13:06;;;;;;;1.15;1.02;;;14.40;99.90;;;;;;5056283;28;20179;-78
2022/10/16 02:15:32;;;;;;;2.05;1.10;;;14.60;99.90;;;;;;5056463;28;20189;-78
2022/10/16 02:17:57;;;;;;;2.63;1.35;;;14.60;99.90;;;;;;5056621;28;20257;-78
2022/10/16 02:20:28;;;;;;;1.05;0.95;;;14.60;99.90;;;;;;5056791;28;20171;-77
2022/10/16 02:22:56;;;;;;;1.15;1.05;;;14.70;99.90;;;;;;5057057;28;20558;-77
2022/10/16 02:25:24;;;;;;;1.35;1.13;;;14.70;99.90;;;;;;5055446;28;20187;-90
2022/10/16 02:27:56;;;;;;;1.00;0.95;;;14.70;99.90;;;;;;5057498;28;20167;-77
2022/10/16 02:30:34;;;;;;;5.25;1.08;;;14.70;99.90;;;;;;5057002;28;20179;-77
2022/10/16 02:33:02;;;;;;;3.35;1.23;;;14.60;99.90;;;;;;5057034;28;20170;-78
2022/10/16 02:35:29;;;;;;;4.57;1.55;;;14.80;99.90;;;;;;5055308;28;20194;-77
2022/10/16 02:37:56;;;;;;;1.10;1.10;;;14.80;99.90;;;;;;5055334;28;20625;-77
2022/10/16 02:40:21;;;;;;;1.67;1.08;;;14.90;99.90;;;;;;5055885;28;20187;-78
2022/10/16 02:42:51;;;;;;;3.72;1.30;;;14.90;99.90;;;;;;5055641;28;20225;-79
2022/10/16 02:45:17;;;;;;;3.55;1.27;;;14.90;99.90;;;;;;5054369;28;20187;-77
2022/10/16 02:47:42;;;;;;;6.95;1.35;;;14.80;99.90;;;;;;5054579;28;20155;-77
2022/10/16 02:50:08;;;;;;;2.05;1.40;;;14.70;99.90;;;;;;5055214;28;20525;-78
2022/10/16 02:52:34;;;;;;;1.40;1.30;;;14.80;99.90;;;;;;5055991;28;20191;-77
2022/10/16 02:55:00;;;;;;;3.17;1.63;;;14.80;99.90;;;;;;5056562;28;20171;-78
2022/10/16 02:57:25;;;;;;;2.92;1.30;;;14.80;99.90;;;;;;5068142;28;20164;-77
2022/10/16 02:59:51;;;;;;;2.25;1.30;;;14.80;99.90;;;;;;5065139;28;20309;-78
2022/10/16 03:02:16;;;;;;;1.30;1.20;;;14.80;99.90;;;;;;5056556;28;20167;-78
2022/10/16 03:04:42;;;;;;;1.60;1.20;;;14.90;99.90;;;;;;5055332;28;20688;-78
2022/10/16 03:07:08;;;;;;;1.75;1.48;;;14.90;99.90;;;;;;5056001;28;20526;-78
2022/10/16 03:09:33;;;;;;;1.33;1.23;;;14.90;99.90;;;;;;5055310;28;20179;-78
2022/10/16 03:11:59;;;;;;;2.00;1.60;;;15.00;99.90;;;;;;5054948;28;20507;-77
2022/10/16 03:14:25;;;;;;;2.65;1.08;;;14.90;99.90;;;;;;5055574;28;20641;-78
2022/10/16 03:16:50;;;;;;;1.90;1.02;;;14.80;99.90;;;;;;5054371;28;20191;-78
2022/10/16 03:19:17;;;;;;;2.65;1.20;;;14.80;99.90;;;;;;5053602;28;20207;-78
2022/10/16 03:21:43;;;;;;;3.45;1.40;;;14.70;99.90;;;;;;5036963;28;20583;-78
2022/10/16 03:24:09;;;;;;;2.50;1.52;;;14.70;99.90;;;;;;5054436;28;20637;-77
2022/10/16 03:26:34;;;;;;;6.22;1.27;;;14.60;99.90;;;;;;5054366;28;20189;-77
2022/10/16 03:29:02;;;;;;;3.88;1.40;;;14.70;99.90;;;;;;5053700;28;20182;-77
2022/10/16 03:31:27;;;;;;;4.65;1.42;;;14.70;99.90;;;;;;5052943;28;20175;-78
2022/10/16 03:33:53;;;;;;;6.82;1.40;;;14.70;99.90;;;;;;5054471;28;20201;-77
2022/10/16 03:36:18;;;;;;;3.42;1.33;;;14.70;99.90;;;;;;5053291;28;20250;-77
2022/10/16 03:38:44;;;;;;;4.25;1.70;;;14.70;99.90;;;;;;5054949;28;20190;-78
2022/10/16 03:41:10;;;;;;;1.70;1.60;;;14.80;99.90;;;;;;5054057;28;20519;-78
2022/10/16 03:43:35;;;;;;;1.80;1.38;;;14.70;99.90;;;;;;5053829;28;20244;-77
2022/10/16 03:46:01;;;;;;;9.15;1.73;;;14.70;99.90;;;;;;5054116;28;20195;-78
2022/10/16 03:48:26;;;;;;;2.10;1.38;;;14.70;99.90;;;;;;5054495;28;20168;-77
2022/10/16 03:50:52;;;;;;;9.30;1.33;;;14.60;99.90;;;;;;5054135;28;20236;-77
2022/10/16 03:53:18;;;;;;;2.15;1.50;;;14.60;99.90;;;;;;5054528;28;20167;-77
2022/10/16 03:55:44;;;;;;;1.52;1.30;;;14.70;99.90;;;;;;5053638;28;20237;-77
2022/10/16 03:58:10;;;;;;;2.58;1.30;;;14.70;99.90;;;;;;5053504;28;20168;-78
2022/10/16 04:00:40;;;;;;;1.63;1.35;;;14.80;99.90;;;;;;5053276;28;20579;-78
2022/10/16 04:03:05;;;;;;;3.97;1.63;;;14.90;99.90;;;;;;5053346;28;20262;-78
2022/10/16 04:05:31;;;;;;;3.33;1.45;;;15.00;99.90;;;;;;5053218;28;20671;-78
2022/10/16 04:07:56;;;;;;;7.45;1.60;;;14.90;99.90;;;;;;5053513;28;20163;-78
2022/10/16 04:10:22;;;;;;;3.00;1.48;;;14.80;99.90;;;;;;5053079;28;20172;-78
2022/10/16 04:12:48;;;;;;;2.63;1.50;;;14.80;99.90;;;;;;5053465;28;20178;-78
2022/10/16 04:15:13;;;;;;;3.30;1.52;;;14.80;99.90;;;;;;5053427;28;20226;-78
2022/10/16 04:17:39;;;;;;;4.65;1.67;;;14.70;99.90;;;;;;5051971;28;20236;-78
2022/10/16 04:20:05;;;;;;;4.20;1.67;;;14.70;99.90;;;;;;5053054;28;20199;-77
2022/10/16 04:22:30;;;;;;;6.35;1.60;;;14.80;99.90;;;;;;5053097;28;20317;-78
2022/10/16 04:24:56;;;;;;;4.40;1.67;;;14.80;99.90;;;;;;5053029;28;20617;-78
2022/10/16 04:27:21;;;;;;;2.35;1.40;;;14.90;99.90;;;;;;5051797;28;20236;-78
2022/10/16 04:29:47;;;;;;;1.80;1.30;;;14.90;99.90;;;;;;5053753;28;20659;-95
2022/10/16 04:32:13;;;;;;;3.45;1.42;;;15.00;99.90;;;;;;5054657;28;20182;-78
2022/10/16 04:34:39;;;;;;;5.30;1.35;;;14.90;99.90;;;;;;5054384;28;20220;-94
2022/10/16 04:37:05;;;;;;;3.05;1.40;;;14.90;99.90;;;;;;5052844;28;20194;-78
2022/10/16 04:39:31;;;;;;;5.65;2.10;;;14.80;99.90;;;;;;5053602;28;20207;-85
2022/10/16 04:41:56;;;;;;;2.78;1.60;;;14.90;99.90;;;;;;5052124;28;20163;-80
2022/10/16 04:44:22;;;;;;;2.10;1.60;;;14.90;99.90;;;;;;5053974;28;20203;-93
2022/10/16 04:46:50;;;;;;;4.50;1.52;;;14.90;99.90;;;;;;5056971;28;20187;-95
2022/10/16 04:49:16;;;;;;;3.83;1.48;;;14.80;99.90;;;;;;5054243;28;20163;-88
2022/10/16 04:51:41;;;;;;;8.95;1.60;;;14.90;99.90;;;;;;5055790;28;20529;-89
2022/10/16 04:54:09;;;;;;;1.30;1.20;;;14.80;99.90;;;;;;5055401;28;20177;-96
2022/10/16 04:56:42;;;;;;;6.85;1.70;;;14.90;99.90;;;;;;5053565;28;20187;-78
2022/10/16 04:59:08;;;;;;;6.80;1.60;;;14.90;99.90;;;;;;5054575;28;20214;-78
2022/10/16 05:01:33;;;;;;;8.50;1.60;;;14.90;99.90;;;;;;5054566;28;20247;-86
2022/10/16 05:03:59;;;;;;;6.35;1.30;;;14.80;99.90;;;;;;5054041;28;20171;-91
2022/10/16 05:06:24;;;;;;;2.70;1.55;;;14.70;99.90;;;;;;5053630;28;20182;-92
2022/10/16 05:08:50;;;;;;;9.70;1.58;;;14.60;99.90;;;;;;5054184;28;20171;-96
2022/10/16 05:11:15;;;;;;;6.25;1.77;;;14.50;99.90;;;;;;5054231;28;20237;-96
2022/10/16 05:13:41;;;;;;;1.77;1.67;;;14.50;99.90;;;;;;5053569;28;20236;-96
2022/10/16 05:16:07;;;;;;;3.40;1.73;;;14.60;99.90;;;;;;5053385;28;20180;-96
2022/10/16 05:18:32;;;;;;;6.25;2.05;;;14.50;99.90;;;;;;5054348;28;20195;-91
2022/10/16 05:20:58;;;;;;;5.80;1.48;;;14.60;99.90;;;;;;5063485;28;20258;-79
2022/10/16 05:23:23;;;;;;;4.35;1.40;;;14.40;99.90;;;;;;5071879;28;20154;-83
2022/10/16 05:25:57;;;;;;;3.88;1.42;;;14.30;99.90;;;;;;5073922;28;20712;-96
2022/10/16 05:28:27;;;;;;;3.50;1.42;;;14.20;99.90;;;;;;5055574;28;20260;-94
2022/10/16 05:30:53;;;;;;;2.28;1.60;;;14.10;99.90;;;;;;5057752;28;20213;-94
2022/10/16 05:33:24;;;;;;;3.97;1.27;;;14.10;99.90;;;;;;5056725;28;20167;-79
2022/10/16 05:35:50;;;;;;;1.55;1.23;;;14.30;99.90;;;;;;5056869;28;20172;-77
2022/10/16 05:38:19;;;;;;;6.82;1.92;;;14.30;99.90;;;;;;5059297;28;20171;-79
2022/10/16 05:40:51;;;;;;;1.98;1.45;;;14.40;99.90;;;;;;5061595;28;20241;-77
2022/10/16 05:43:17;;;;;;;2.72;1.90;;;14.40;99.90;;;;;;5060016;28;20525;-78
2022/10/16 05:45:42;;;;;;;3.45;1.80;;;14.50;99.90;;;;;;5061753;28;20190;-78
2022/10/16 05:48:08;;;;;;;5.63;1.77;;;14.50;99.90;;;;;;5056203;28;20160;-92
2022/10/16 05:50:33;;;;;;;2.92;1.42;;;14.50;99.90;;;;;;5052301;28;20619;-96
2022/10/16 05:52:59;;;;;;;5.47;1.73;;;14.50;99.90;;;;;;5056435;28;20151;-89
2022/10/16 05:55:25;;;;;;;1.58;1.48;;;14.40;99.90;;;;;;5063944;28;20202;-85
2022/10/16 05:57:53;;;;;;;2.35;1.70;;;14.30;99.90;;;;;;5059227;28;20225;-93
2022/10/16 06:00:19;;;;;;;3.05;1.88;;;14.30;99.90;;;;;;5056929;28;20665;-81
2022/10/16 06:02:44;;;;;;;2.75;1.95;;;14.20;99.90;;;;;;5059521;28;20163;-92
2022/10/16 06:05:10;;;;;;;9.63;2.15;;;14.20;99.90;;;;;;5061195;28;20175;-86
2022/10/16 06:07:36;;;;;;;7.32;2.40;;;14.30;99.90;;;;;;5064656;28;20160;-78
2022/10/16 06:10:02;;;;;;;2.67;1.85;;;14.30;99.90;;;;;;5059004;28;20175;-83
2022/10/16 06:12:28;;;;;;;3.42;2.20;;;14.30;99.90;;;;;;5055550;28;20676;-86
2022/10/16 06:14:54;;;;;;;2.38;1.90;;;14.50;99.90;;;;;;5055417;28;20175;-86
2022/10/16 06:17:19;;;;;;;7.32;1.92;;;14.40;99.90;;;;;;5056172;28;20195;-91
2022/10/16 06:19:45;;;;;;;4.47;2.35;;;14.40;99.90;;;;;;5053731;28;20289;-88
2022/10/16 06:22:10;;;;;;;2.55;1.83;;;14.50;99.90;;;;;;5055630;28;20179;-87
2022/10/16 06:24:36;;;;;;;1.63;1.52;;;14.50;99.90;;;;;;5059776;28;20544;-77
2022/10/16 06:27:03;;;;;;;2.50;1.70;;;14.50;99.90;;;;;;5058783;28;20270;-84
2022/10/16 06:29:29;;;;;;;4.50;2.10;;;14.40;99.90;;;;;;5056862;28;20579;-78
2022/10/16 06:31:54;;;;;;;8.45;1.73;;;14.30;99.90;;;;;;5055993;28;20190;-78
2022/10/16 06:34:20;;;;;;;2.88;2.30;;;14.50;99.90;;;;;;5059568;28;20502;-95
2022/10/16 06:36:46;;;;;;;4.05;1.83;;;14.50;99.90;;;;;;5062026;28;20183;-91
2022/10/16 06:39:11;;;;;;;4.28;2.05;;;14.50;99.90;;;;;;5060142;28;20214;-92
2022/10/16 06:41:38;;;;;;;3.58;2.10;;;14.60;99.90;;;;;;5059088;28;20246;-84
2022/10/16 06:44:07;;;;;;;2.88;1.95;;;14.60;99.90;;;;;;5063616;28;20171;-90
2022/10/16 06:46:35;;;;;;;6.85;1.90;;;14.60;99.90;;;;;;5063705;28;20163;-78
2022/10/16 06:49:00;;;;;;;1.77;1.55;;;14.70;99.90;;;;;;5062977;28;20183;-80
2022/10/16 06:51:26;;;;;;;4.60;1.67;;;14.80;99.90;;;;;;5060596;28;20159;-93
2022/10/16 06:53:54;;;;;;;2.35;1.52;;;15.00;99.90;;;;;;5060818;28;20156;-87
2022/10/16 06:56:21;;;;;;;5.53;1.70;;;15.00;99.90;;;;;;5063135;28;20234;-82
2022/10/16 06:58:55;;;;;;;3.50;1.90;;;15.00;99.90;;;;;;5062166;28;20254;-86
2022/10/16 07:01:22;;;;;;;2.95;2.03;;;14.90;99.90;;;;;;5057286;28;20605;-93
2022/10/16 07:03:49;;;;;;;2.33;1.63;;;14.90;99.90;;;;;;5055837;28;20225;-91
2022/10/16 07:06:17;;;;;;;2.53;1.88;;;14.90;99.90;;;;;;5055890;28;20187;-78
2022/10/16 07:08:45;;;;;;;4.10;1.80;;;15.00;99.90;;;;;;5057196;28;20194;-85
2022/10/16 07:11:14;;;;;;;9.65;2.60;;;15.00;99.90;;;;;;5056934;28;20182;-80
2022/10/16 07:13:41;;;;;;;3.97;2.00;;;15.00;99.90;;;;;;5057981;28;20202;-78
2022/10/16 07:16:17;;;;;;;3.00;1.80;;;15.00;99.90;;;;;;5042001;28;20245;-94
2022/10/16 07:18:45;;;;;;;3.42;2.20;;;14.90;99.90;;;;;;5058198;28;20210;-80
2022/10/16 07:21:13;;;;;;;2.90;1.45;;;14.90;99.90;;;;;;5065526;28;20163;-79
2022/10/16 07:23:39;;;;;;;1.65;1.40;;;15.10;99.90;;;;;;5063795;28;20163;-79
2022/10/16 07:26:05;;;;;;;8.55;2.40;;;15.00;99.90;;;;;;5062151;28;20190;-78
2022/10/16 07:28:32;;;;;;;6.55;4.28;;;15.10;99.90;;;;;;5059424;28;20193;-78
2022/10/16 07:31:08;;;;;;;6.13;3.47;;;15.20;99.90;;;;;;5065623;28;20213;-79
2022/10/16 07:33:38;;;;;;;2.80;1.90;;;15.30;99.90;;;;;;5061430;28;20257;-82
2022/10/16 07:36:04;;;;;;;7.38;2.38;;;15.30;99.90;;;;;;5058746;28;20278;-81
2022/10/16 07:38:30;;;;;;;3.08;2.20;;;15.40;99.90;;;;;;5058849;28;20226;-85
2022/10/16 07:41:01;;;;;;;5.65;1.67;;;15.40;99.90;;;;;;5056781;28;20182;-79
2022/10/16 07:43:28;;;;;;;7.40;2.20;;;15.50;99.90;;;;;;5057964;28;20637;-82
2022/10/16 07:45:57;;;;;;;2.97;1.50;;;15.50;99.90;;;;;;5056684;28;20206;-80
2022/10/16 07:48:24;;;;;;;6.38;2.28;;;15.40;99.90;;;;;;5059435;28;20197;-79
2022/10/16 07:50:50;;;;;;;5.00;2.22;;;15.60;99.90;;;;;;5061972;28;20175;-81
2022/10/16 07:53:16;;;;;;;5.60;1.80;;;15.50;99.90;;;;;;5075515;28;20164;-79
2022/10/16 07:55:42;;;;;;;3.35;1.40;;;15.60;99.90;;;;;;5066521;28;20198;-80
2022/10/16 07:58:07;;;;;;;6.60;2.17;;;15.60;99.90;;;;;;5055188;28;20528;-80
2022/10/16 08:00:33;;;;;;;3.63;1.80;;;15.80;99.90;;;;;;5054751;28;20669;-79
2022/10/16 08:03:02;;;;;;;1.77;1.38;;;15.90;99.90;;;;;;5051239;28;20225;-84
2022/10/16 08:05:29;;;;;;;8.00;1.98;;;15.90;99.90;;;;;;5052769;28;20227;-79
2022/10/16 08:07:55;;;;;;;9.30;1.90;;;15.90;99.90;;;;;;5049170;28;20171;-87
2022/10/16 08:10:24;;;;;;;1.40;1.30;;;16.00;99.90;;;;;;5054858;28;20517;-92
2022/10/16 08:12:51;;;;;;;1.48;1.38;;;16.00;99.90;;;;;;5052892;28;20182;-93
2022/10/16 08:15:17;;;;;;;5.22;1.92;;;16.00;99.90;;;;;;5054349;28;20261;-80
2022/10/16 08:17:42;;;;;;;4.18;1.42;;;16.00;99.90;;;;;;5053997;28;20455;-82
2022/10/16 08:20:09;;;;;;;4.55;1.77;;;16.00;99.90;;;;;;5052221;28;20294;-84
2022/10/16 08:22:35;;;;;;;1.55;1.45;;;16.00;99.90;;;;;;5054246;28;20198;-83
2022/10/16 08:25:00;;;;;;;4.10;1.40;;;16.00;99.90;;;;;;5055811;28;20174;-81
2022/10/16 08:27:33;;;;;;;2.40;1.63;;;16.10;99.90;;;;;;5051357;28;20168;-79
2022/10/16 08:29:59;;;;;;;3.88;1.90;;;16.10;99.90;;;;;;5032424;28;20560;-85
2022/10/16 08:32:25;;;;;;;3.88;2.05;;;16.30;99.90;;;;;;5034429;28;20246;-80
2022/10/16 08:34:59;;;;;;;3.03;1.90;;;16.40;99.90;;;;;;5033810;28;20211;-87
2022/10/16 08:37:29;;;;;;;2.50;1.60;;;16.50;99.90;;;;;;5033276;28;20173;-83
2022/10/16 08:39:57;;;;;;;5.07;1.60;;;16.50;99.90;;;;;;5031750;28;20215;-82
2022/10/16 08:42:44;;;;;;;4.43;1.50;;;16.50;99.90;;;;;;5015270;28;20287;-82
2022/10/16 08:45:31;;;;;;;2.63;1.77;;;16.70;99.90;;;;;;5032900;28;20533;-82
2022/10/16 08:48:12;;;;;;;7.30;2.88;;;16.70;99.90;;;;;;5032293;28;20263;-80
2022/10/16 08:50:39;;;;;;;12.85;3.50;;;16.80;99.90;;;;;;5032022;28;20186;-79
2022/10/16 08:53:06;;;;;;;7.05;2.65;;;16.90;99.90;;;;;;5033267;28;20168;-81
2022/10/16 08:55:43;;;;;;;7.10;2.10;;;17.00;99.90;;;;;;5031354;28;20676;-80
2022/10/16 08:58:17;;;;;;;6.68;1.90;;;17.10;99.90;;;;;;5032873;28;20199;-80
2022/10/16 09:00:49;;;;;;;5.82;1.90;;;17.10;99.90;;;;;;5030768;28;20576;-80
2022/10/16 09:03:37;;;;;;;5.38;1.92;;;17.10;99.90;;;;;;5032758;28;20633;-82
2022/10/16 09:06:25;;;;;;;3.70;1.83;;;17.10;99.90;;;;;;5032005;28;20600;-83
2022/10/16 09:09:09;;;;;;;3.75;1.45;;;17.20;99.90;;;;;;5032862;28;20176;-83
2022/10/16 09:11:41;;;;;;;1.98;1.40;;;17.30;99.90;;;;;;5031879;28;20652;-80
2022/10/16 09:14:17;;;;;;;5.63;1.60;;;17.20;99.90;;;;;;5033674;28;20211;-80
2022/10/16 09:16:51;;;;;;;4.45;2.47;;;17.40;99.90;;;;;;5032991;28;20194;-81
2022/10/16 09:19:25;;;;;;;6.22;1.20;;;17.40;99.90;;;;;;5033019;28;20231;-81
2022/10/16 09:21:52;;;;;;;3.53;1.20;;;17.40;99.90;;;;;;5033359;28;20190;-81
2022/10/16 09:24:25;;;;;;;2.28;1.20;;;17.60;99.90;;;;;;5032239;28;20618;-86
2022/10/16 09:26:51;;;;;;;6.80;1.90;;;17.60;99.90;;;;;;5033345;28;20194;-85
2022/10/16 09:29:24;;;;;;;5.28;1.27;;;17.50;99.90;;;;;;5033291;28;20164;-90
2022/10/16 09:31:51;;;;;;;8.52;1.90;;;17.50;99.90;;;;;;5033530;28;20241;-82
2022/10/16 09:34:29;;;;;;;5.72;1.27;;;17.60;99.90;;;;;;5034129;28;20180;-87
2022/10/16 09:36:57;;;;;;;3.05;1.20;;;17.60;99.90;;;;;;5036142;28;20238;-91
2022/10/16 09:39:23;;;;;;;5.15;1.70;;;17.60;99.90;;;;;;5034623;28;20211;-84
2022/10/16 09:41:49;;;;;;;5.63;2.00;;;17.70;99.90;;;;;;5034050;28;20176;-81
2022/10/16 09:44:40;;;;;;;3.35;1.58;;;17.80;99.90;;;;;;5035486;28;20163;-87
2022/10/16 09:47:17;;;;;;;3.92;1.75;;;17.90;99.90;;;;;;5033014;28;20271;-89
2022/10/16 09:50:02;;;;;;;3.72;1.30;;;18.10;99.90;;;;;;5033498;28;20705;-88
2022/10/16 09:52:29;;;;;;;2.80;1.20;;;18.20;99.90;;;;;;5034007;28;20302;-86
2022/10/16 09:55:16;;;;;;;4.82;1.40;;;18.30;99.90;;;;;;5034438;28;20243;-89
2022/10/16 09:57:54;;;;;;;2.45;1.10;;;18.10;99.90;;;;;;5040936;28;20225;-89
2022/10/16 10:00:21;;;;;;;3.55;0.90;;;18.10;99.90;;;;;;5037828;28;20203;-89
2022/10/16 10:02:47;;;;;;;2.05;1.10;;;18.10;99.90;;;;;;5039463;28;20637;-86
2022/10/16 10:05:28;;;;;;;6.57;1.25;;;18.10;99.90;;;;;;5040372;28;20611;-83
2022/10/16 10:08:01;;;;;;;4.00;1.20;;;18.20;99.90;;;;;;5046903;28;20235;-87
2022/10/16 10:10:29;;;;;;;3.58;1.00;;;18.20;99.90;;;;;;5035380;28;20648;-89
2022/10/16 10:12:57;;;;;;;3.47;1.10;;;18.20;99.90;;;;;;5045445;28;20234;-88
2022/10/16 10:15:24;;;;;;;7.82;1.65;;;18.40;99.90;;;;;;5043594;28;20222;-86
2022/10/16 10:17:55;;;;;;;3.90;3.10;;;18.70;99.90;;;;;;5042562;28;20191;-85
2022/10/16 10:20:33;;;;;;;4.40;1.88;;;18.50;99.90;;;;;;5045294;28;20211;-83
2022/10/16 10:22:59;;;;;;;3.47;2.13;;;18.60;99.90;;;;;;5040249;28;20175;-79
2022/10/16 10:25:44;;;;;;;2.53;1.00;;;18.40;99.90;;;;;;5041640;28;20188;-78
2022/10/16 10:28:42;;;;;;;5.38;1.00;;;18.50;99.90;;;;;;5040080;28;20646;-78
2022/10/16 10:31:17;;;;;;;1.40;1.20;;;18.70;99.90;;;;;;5037446;28;20176;-79
2022/10/16 10:34:02;;;;;;;3.58;1.85;;;19.00;99.90;;;;;;5036337;28;20166;-83
2022/10/16 10:36:36;;;;;;;7.95;1.30;;;19.10;99.90;;;;;;5036232;28;20524;-79
2022/10/16 10:39:49;;;;;;;2.20;0.80;;;19.40;99.90;;;;;;5037682;28;20199;-79
2022/10/16 10:42:34;;;;;;;2.17;1.05;;;19.70;99.90;;;;;;5001945;28;20184;-80
2022/10/16 10:45:16;;;;;;;3.15;1.23;;;19.90;99.90;;;;;;5036777;28;20194;-80
2022/10/16 10:48:10;;;;;;;0.80;0.80;;;19.90;99.90;;;;;;5034047;28;20265;-83
2022/10/16 10:50:50;;;;;;;5.53;2.03;;;19.90;99.90;;;;;;5035656;28;20168;-83
2022/10/16 10:53:57;;;;;;;5.03;1.45;;;19.80;99.90;;;;;;5035397;28;20629;-85
2022/10/16 10:56:41;;;;;;;5.65;1.15;;;19.70;99.90;;;;;;5035506;28;20188;-86
2022/10/16 10:59:31;;;;;;;5.25;1.30;;;19.90;99.90;;;;;;5036450;28;20294;-88
2022/10/16 11:02:26;;;;;;;3.25;0.93;;;20.10;99.90;;;;;;5035697;28;20167;-89
2022/10/16 11:05:19;;;;;;;4.22;1.00;;;20.00;99.90;;;;;;5027471;28;20187;-80
2022/10/16 11:08:15;;;;;;;2.35;0.88;;;19.90;99.90;;;;;;5035009;28;20203;-81
2022/10/16 11:11:08;;;;;;;1.90;1.00;;;19.60;99.90;;;;;;5033639;28;20176;-82
2022/10/16 11:13:59;;;;;;;2.25;1.10;;;19.70;99.90;;;;;;5026941;28;20203;-81
2022/10/16 11:16:34;;;;;;;3.75;1.75;;;20.00;99.90;;;;;;5027364;28;20203;-89
2022/10/16 11:19:05;;;;;;;3.13;1.20;;;20.10;99.90;;;;;;5035240;28;20221;-86
2022/10/16 11:21:40;;;;;;;2.13;1.20;;;20.00;99.90;;;;;;5035312;28;20595;-89
2022/10/16 11:24:25;;;;;;;2.72;1.40;;;19.90;99.90;;;;;;5035006;28;20198;-86
2022/10/16 11:26:55;;;;;;;2.15;1.00;;;19.80;99.90;;;;;;5035359;28;20294;-86
2022/10/16 11:29:27;;;;;;;1.45;0.90;;;19.70;99.90;;;;;;5035004;28;20164;-84
2022/10/16 11:32:04;;;;;;;3.17;1.00;;;19.80;99.90;;;;;;5035278;28;20537;-83
2022/10/16 11:34:38;;;;;;;1.85;1.30;;;19.60;99.90;;;;;;5035925;28;20171;-89
2022/10/16 11:37:16;;;;;;;4.93;2.17;;;19.50;99.90;;;;;;5035467;28;20673;-88
2022/10/16 11:39:44;;;;;;;3.60;1.33;;;19.30;99.90;;;;;;5035266;28;20784;-81
2022/10/16 11:42:33;;;;;;;6.07;1.02;;;19.50;99.90;;;;;;5036101;28;20164;-81
2022/10/16 11:45:30;;;;;;;3.00;1.10;;;19.50;99.90;;;;;;5035885;28;20225;-81
2022/10/16 11:48:06;;;;;;;2.17;0.90;;;19.80;99.90;;;;;;5035199;28;20164;-81
2022/10/16 11:50:34;;;;;;;2.65;1.42;;;19.80;99.90;;;;;;5033548;28;20171;-83
2022/10/16 11:53:09;;;;;;;3.00;1.33;;;19.70;99.90;;;;;;5033887;28;20168;-86
2022/10/16 11:55:38;;;;;;;7.20;1.30;;;19.70;99.90;;;;;;5034064;28;20582;-79
2022/10/16 11:58:08;;;;;;;4.55;1.33;;;19.60;99.90;;;;;;5033226;28;20222;-84
2022/10/16 12:00:43;;;;;;;1.65;0.77;;;19.40;99.90;;;;;;5032999;28;20780;-81
2022/10/16 12:03:26;;;;;;;1.13;0.70;;;19.40;99.90;;;;;;5033176;28;20170;-83
2022/10/16 12:06:20;;;;;;;1.58;0.75;;;19.40;99.90;;;;;;5035165;28;20246;-88
2022/10/16 12:08:46;;;;;;;2.65;1.02;;;19.50;99.90;;;;;;5034886;28;20175;-86
2022/10/16 12:11:32;;;;;;;2.08;1.20;;;19.80;99.90;;;;;;5035032;28;20160;-87
2022/10/16 12:14:27;;;;;;;4.22;0.80;;;19.90;99.90;;;;;;5033123;28;20188;-87
2022/10/16 12:16:56;;;;;;;2.90;0.80;;;20.30;99.90;;;;;;5034192;28;20207;-85
2022/10/16 12:19:24;;;;;;;1.77;1.30;;;20.40;99.90;;;;;;5033396;28;20234;-80
2022/10/16 12:21:52;;;;;;;4.40;2.80;;;20.40;99.90;;;;;;5033733;28;20156;-87
2022/10/16 12:24:38;;;;;;;3.75;2.30;;;20.40;99.90;;;;;;5034150;28;20171;-90
2022/10/16 12:27:16;;;;;;;2.00;1.00;;;20.30;99.90;;;;;;5034221;28;20187;-87
2022/10/16 12:29:44;;;;;;;1.95;1.08;;;20.30;99.90;;;;;;5033051;28;20172;-91
2022/10/16 12:32:39;;;;;;;1.60;0.70;;;20.20;99.90;;;;;;5033577;28;20175;-81
2022/10/16 12:35:17;;;;;;;7.57;1.02;;;20.30;99.90;;;;;;5020889;28;20180;-88
2022/10/16 12:37:44;;;;;;;4.10;0.93;;;20.50;99.90;;;;;;5033918;28;20652;-82
2022/10/16 12:40:25;;;;;;;2.10;0.63;;;20.70;99.90;;;;;;5033792;28;20291;-87
2022/10/16 12:42:51;;;;;;;1.70;1.00;;;20.80;99.90;;;;;;5034633;28;20156;-87
2022/10/16 12:45:31;;;;;;;2.35;0.68;;;21.00;99.90;;;;;;5034215;28;20198;-90
2022/10/16 12:47:58;;;;;;;1.55;0.70;;;21.20;99.90;;;;;;5034263;28;20626;-83
2022/10/16 12:50:31;;;;;;;2.15;1.17;;;21.30;99.90;;;;;;5033500;28;20637;-85
2022/10/16 12:52:57;;;;;;;1.75;1.08;;;21.40;99.90;;;;;;5034079;28;20164;-83
2022/10/16 12:55:24;;;;;;;1.63;1.00;;;21.40;99.90;;;;;;5044830;28;20278;-81
2022/10/16 12:58:11;;;;;;;5.22;1.20;;;21.50;99.90;;;;;;5049178;28;20533;-82
2022/10/16 13:01:04;;;;;;;1.38;1.05;;;21.70;99.90;;;;;;5046307;28;20432;-83
2022/10/16 13:03:53;;;;;;;1.27;0.85;;;21.70;99.90;;;;;;5032817;28;20160;-80
2022/10/16 13:07:06;;;;;;;5.05;1.40;;;21.80;99.90;;;;;;5032455;28;20286;-81
2022/10/16 13:09:59;;;;;;;1.98;1.23;;;21.70;99.90;;;;;;4971966;28;20695;-83